sensor_id;sensor_type;location;lat;lon;timestamp;temperature;humidity
68385;DHT22;55336;43.062;25.626;2023-08-17T00:01:49;17.00;99.90
68385;DHT22;55336;43.062;25.626;2023-08-17T00:04:15;17.00;99.90
68385;DHT22;55336;43.062;25.626;2023-08-17T00:06:42;17.00;99.90
68385;DHT22;55336;43.062;25.626;2023-08-17T00:09:08;16.90;99.90
68385;DHT22;55336;43.062;25.626;2023-08-17T00:11:34;16.90;99.90
68385;DHT22;55336;43.062;25.626;2023-08-17T00:14:00;16.90;99.90
68385;DHT22;55336;43.062;25.626;2023-08-17T00:16:26;16.80;99.90
68385;DHT22;55336;43.062;25.626;2023-08-17T00:18:52;16.80;99.90
68385;DHT22;55336;43.062;25.626;2023-08-17T00:21:18;16.80;99.90
68385;DHT22;55336;43.062;25.626;2023-08-17T00:23:43;16.80;99.90
68385;DHT22;55336;43.062;25.626;2023-08-17T00:26:09;16.80;99.90
68385;DHT22;55336;43.062;25.626;2023-08-17T00:28:36;16.80;99.90
68385;DHT22;55336;43.062;25.626;2023-08-17T00:31:01;16.80;99.90
68385;DHT22;55336;43.062;25.626;2023-08-17T00:33:27;16.70;99.90
68385;DHT22;55336;43.062;25.626;2023-08-17T00:35:53;16.70;99.90
68385;DHT22;55336;43.062;25.626;2023-08-17T00:38:19;16.70;99.90
68385;DHT22;55336;43.062;25.626;2023-08-17T00:40:45;16.70;99.90
68385;DHT22;55336;43.062;25.626;2023-08-17T00:43:11;16.60;99.90
68385;DHT22;55336;43.062;25.626;2023-08-17T00:45:36;16.60;99.90
68385;DHT22;55336;43.062;25.626;2023-08-17T00:48:02;16.60;99.90
68385;DHT22;55336;43.062;25.626;2023-08-17T00:50:38;16.60;99.90
68385;DHT22;55336;43.062;25.626;2023-08-17T00:53:05;16.60;99.90
68385;DHT22;55336;43.062;25.626;2023-08-17T00:55:31;16.50;99.90
68385;DHT22;55336;43.062;25.626;2023-08-17T00:57:58;16.50;99.90
68385;DHT22;55336;43.062;25.626;2023-08-17T01:00:24;16.50;99.90
68385;DHT22;55336;43.062;25.626;2023-08-17T01:02:51;16.50;99.90
68385;DHT22;55336;43.062;25.626;2023-08-17T01:05:17;16.50;99.90
68385;DHT22;55336;43.062;25.626;2023-08-17T01:07:42;16.50;99.90
68385;DHT22;55336;43.062;25.626;2023-08-17T01:10:08;16.50;99.90
68385;DHT22;55336;43.062;25.626;2023-08-17T01:12:39;16.50;99.90
68385;DHT22;55336;43.062;25.626;2023-08-17T01:15:10;16.40;99.90
68385;DHT22;55336;43.062;25.626;2023-08-17T01:20:29;16.40;99.90
68385;DHT22;55336;43.062;25.626;2023-08-17T01:22:55;16.40;99.90
68385;DHT22;55336;43.062;25.626;2023-08-17T01:25:24;16.40;99.90
68385;DHT22;55336;43.062;25.626;2023-08-17T01:27:50;16.40;99.90
68385;DHT22;55336;43.062;25.626;2023-08-17T01:30:17;16.50;99.90
68385;DHT22;55336;43.062;25.626;2023-08-17T01:35:17;16.40;99.90
68385;DHT22;55336;43.062;25.626;2023-08-17T01:37:44;16.40;99.90
68385;DHT22;55336;43.062;25.626;2023-08-17T01:40:10;16.40;99.90
68385;DHT22;55336;43.062;25.626;2023-08-17T01:42:37;16.30;99.90
68385;DHT22;55336;43.062;25.626;2023-08-17T01:45:04;16.30;99.90
68385;DHT22;55336;43.062;25.626;2023-08-17T01:47:30;16.30;99.90
68385;DHT22;55336;43.062;25.626;2023-08-17T01:49:59;16.30;99.90
68385;DHT22;55336;43.062;25.626;2023-08-17T01:52:26;16.30;99.90
68385;DHT22;55336;43.062;25.626;2023-08-17T01:54:53;16.30;99.90
68385;DHT22;55336;43.062;25.626;2023-08-17T01:57:19;16.30;99.90
68385;DHT22;55336;43.062;25.626;2023-08-17T01:59:45;16.20;99.90
68385;DHT22;55336;43.062;25.626;2023-08-17T02:02:11;16.20;99.90
68385;DHT22;55336;43.062;25.626;2023-08-17T02:04:40;16.20;99.90
68385;DHT22;55336;43.062;25.626;2023-08-17T02:07:05;16.20;99.90
68385;DHT22;55336;43.062;25.626;2023-08-17T02:09:31;16.20;99.90
68385;DHT22;55336;43.062;25.626;2023-08-17T02:11:57;16.20;99.90
68385;DHT22;55336;43.062;25.626;2023-08-17T02:14:23;16.10;99.90
68385;DHT22;55336;43.062;25.626;2023-08-17T02:16:48;16.10;99.90
68385;DHT22;55336;43.062;25.626;2023-08-17T02:19:14;16.10;99.90
68385;DHT22;55336;43.062;25.626;2023-08-17T02:21:40;16.00;99.90
68385;DHT22;55336;43.062;25.626;2023-08-17T02:24:06;16.00;99.90
68385;DHT22;55336;43.062;25.626;2023-08-17T02:26:32;16.10;99.90
68385;DHT22;55336;43.062;25.626;2023-08-17T02:28:58;16.00;99.90
68385;DHT22;55336;43.062;25.626;2023-08-17T02:31:24;16.00;99.90
68385;DHT22;55336;43.062;25.626;2023-08-17T02:33:50;16.00;99.90
68385;DHT22;55336;43.062;25.626;2023-08-17T02:36:15;16.00;99.90
68385;DHT22;55336;43.062;25.626;2023-08-17T02:38:41;15.90;99.90
68385;DHT22;55336;43.062;25.626;2023-08-17T02:41:07;15.90;99.90
68385;DHT22;55336;43.062;25.626;2023-08-17T02:43:33;15.90;99.90
68385;DHT22;55336;43.062;25.626;2023-08-17T02:45:59;15.90;99.90
68385;DHT22;55336;43.062;25.626;2023-08-17T02:48:25;15.90;99.90
68385;DHT22;55336;43.062;25.626;2023-08-17T02:50:51;16.00;99.90
68385;DHT22;55336;43.062;25.626;2023-08-17T02:53:17;15.90;99.90
68385;DHT22;55336;43.062;25.626;2023-08-17T02:55:43;15.90;99.90
68385;DHT22;55336;43.062;25.626;2023-08-17T02:58:08;15.90;99.90
68385;DHT22;55336;43.062;25.626;2023-08-17T03:00:34;15.90;99.90
68385;DHT22;55336;43.062;25.626;2023-08-17T03:03:00;15.90;99.90
68385;DHT22;55336;43.062;25.626;2023-08-17T03:05:26;15.80;99.90
68385;DHT22;55336;43.062;25.626;2023-08-17T03:07:52;15.80;99.90
68385;DHT22;55336;43.062;25.626;2023-08-17T03:10:17;15.80;99.90
68385;DHT22;55336;43.062;25.626;2023-08-17T03:12:43;15.90;99.90
68385;DHT22;55336;43.062;25.626;2023-08-17T03:15:09;15.80;99.90
68385;DHT22;55336;43.062;25.626;2023-08-17T03:17:35;15.90;99.90
68385;DHT22;55336;43.062;25.626;2023-08-17T03:20:01;15.90;99.90
68385;DHT22;55336;43.062;25.626;2023-08-17T03:22:27;15.80;99.90
68385;DHT22;55336;43.062;25.626;2023-08-17T03:24:54;15.80;99.90
68385;DHT22;55336;43.062;25.626;2023-08-17T03:27:20;15.80;99.90
68385;DHT22;55336;43.062;25.626;2023-08-17T03:29:46;15.80;99.90
68385;DHT22;55336;43.062;25.626;2023-08-17T03:32:12;15.80;99.90
68385;DHT22;55336;43.062;25.626;2023-08-17T03:34:38;15.80;99.90
68385;DHT22;55336;43.062;25.626;2023-08-17T03:37:04;15.80;99.90
68385;DHT22;55336;43.062;25.626;2023-08-17T03:39:30;15.80;99.90
68385;DHT22;55336;43.062;25.626;2023-08-17T03:41:56;15.80;99.90
68385;DHT22;55336;43.062;25.626;2023-08-17T03:44:22;15.80;99.90
68385;DHT22;55336;43.062;25.626;2023-08-17T03:46:47;15.80;99.90
68385;DHT22;55336;43.062;25.626;2023-08-17T03:49:13;15.90;99.90
68385;DHT22;55336;43.062;25.626;2023-08-17T03:51:42;15.80;99.90
68385;DHT22;55336;43.062;25.626;2023-08-17T03:54:08;15.90;99.90
68385;DHT22;55336;43.062;25.626;2023-08-17T03:56:33;15.90;99.90
68385;DHT22;55336;43.062;25.626;2023-08-17T03:59:00;15.90;99.90
68385;DHT22;55336;43.062;25.626;2023-08-17T04:01:25;16.00;99.90
68385;DHT22;55336;43.062;25.626;2023-08-17T04:03:51;16.00;99.90
68385;DHT22;55336;43.062;25.626;2023-08-17T04:06:17;16.10;99.90
68385;DHT22;55336;43.062;25.626;2023-08-17T04:08:43;16.10;99.90
68385;DHT22;55336;43.062;25.626;2023-08-17T04:11:09;16.20;99.90
68385;DHT22;55336;43.062;25.626;2023-08-17T04:13:35;16.40;99.90
68385;DHT22;55336;43.062;25.626;2023-08-17T04:16:00;16.40;99.90
68385;DHT22;55336;43.062;25.626;2023-08-17T04:18:26;16.60;99.90
68385;DHT22;55336;43.062;25.626;2023-08-17T04:20:52;16.60;99.90
68385;DHT22;55336;43.062;25.626;2023-08-17T04:23:18;16.70;99.90
68385;DHT22;55336;43.062;25.626;2023-08-17T04:25:43;16.80;99.90
68385;DHT22;55336;43.062;25.626;2023-08-17T04:28:09;16.90;99.90
68385;DHT22;55336;43.062;25.626;2023-08-17T04:30:35;16.90;99.90
68385;DHT22;55336;43.062;25.626;2023-08-17T04:33:01;17.00;99.90
68385;DHT22;55336;43.062;25.626;2023-08-17T04:35:26;17.10;99.90
68385;DHT22;55336;43.062;25.626;2023-08-17T04:37:52;17.20;99.90
68385;DHT22;55336;43.062;25.626;2023-08-17T04:40:18;17.30;99.90
68385;DHT22;55336;43.062;25.626;2023-08-17T04:42:44;17.30;99.90
68385;DHT22;55336;43.062;25.626;2023-08-17T04:45:10;17.40;99.90
68385;DHT22;55336;43.062;25.626;2023-08-17T04:47:36;17.40;99.90
68385;DHT22;55336;43.062;25.626;2023-08-17T04:50:02;17.60;99.90
68385;DHT22;55336;43.062;25.626;2023-08-17T04:52:28;17.70;99.90
68385;DHT22;55336;43.062;25.626;2023-08-17T04:54:54;17.70;99.90
68385;DHT22;55336;43.062;25.626;2023-08-17T04:57:20;17.80;99.90
68385;DHT22;55336;43.062;25.626;2023-08-17T04:59:45;18.00;99.90
68385;DHT22;55336;43.062;25.626;2023-08-17T05:02:11;18.10;99.90
68385;DHT22;55336;43.062;25.626;2023-08-17T05:04:37;18.20;99.90
68385;DHT22;55336;43.062;25.626;2023-08-17T05:07:04;18.30;99.90
68385;DHT22;55336;43.062;25.626;2023-08-17T05:09:30;18.50;99.90
68385;DHT22;55336;43.062;25.626;2023-08-17T05:11:56;18.60;99.90
68385;DHT22;55336;43.062;25.626;2023-08-17T05:14:21;18.60;99.90
68385;DHT22;55336;43.062;25.626;2023-08-17T05:16:47;18.80;99.90
68385;DHT22;55336;43.062;25.626;2023-08-17T05:19:13;18.80;99.90
68385;DHT22;55336;43.062;25.626;2023-08-17T05:21:39;19.00;99.90
68385;DHT22;55336;43.062;25.626;2023-08-17T05:24:05;19.10;99.90
68385;DHT22;55336;43.062;25.626;2023-08-17T05:26:31;19.30;99.90
68385;DHT22;55336;43.062;25.626;2023-08-17T05:28:57;19.50;99.90
68385;DHT22;55336;43.062;25.626;2023-08-17T05:31:23;19.80;99.90
68385;DHT22;55336;43.062;25.626;2023-08-17T05:33:49;20.10;99.90
68385;DHT22;55336;43.062;25.626;2023-08-17T05:36:15;20.50;99.90
68385;DHT22;55336;43.062;25.626;2023-08-17T05:38:44;20.80;99.90
68385;DHT22;55336;43.062;25.626;2023-08-17T05:41:10;21.50;99.90
68385;DHT22;55336;43.062;25.626;2023-08-17T05:43:36;22.00;99.90
68385;DHT22;55336;43.062;25.626;2023-08-17T05:46:09;22.40;99.90
68385;DHT22;55336;43.062;25.626;2023-08-17T05:48:37;22.80;99.90
68385;DHT22;55336;43.062;25.626;2023-08-17T05:51:17;23.10;99.90
68385;DHT22;55336;43.062;25.626;2023-08-17T06:01:19;24.40;99.90
68385;DHT22;55336;43.062;25.626;2023-08-17T06:04:13;25.20;99.90
68385;DHT22;55336;43.062;25.626;2023-08-17T06:07:27;25.70;99.90
68385;DHT22;55336;43.062;25.626;2023-08-17T06:10:13;25.00;99.90
68385;DHT22;55336;43.062;25.626;2023-08-17T06:12:39;26.10;99.90
68385;DHT22;55336;43.062;25.626;2023-08-17T06:15:05;26.60;99.90
68385;DHT22;55336;43.062;25.626;2023-08-17T06:17:31;27.00;99.90
68385;DHT22;55336;43.062;25.626;2023-08-17T06:19:57;26.10;99.90
68385;DHT22;55336;43.062;25.626;2023-08-17T06:22:24;25.90;99.90
68385;DHT22;55336;43.062;25.626;2023-08-17T06:24:50;26.90;99.90
68385;DHT22;55336;43.062;25.626;2023-08-17T06:27:15;26.60;99.90
68385;DHT22;55336;43.062;25.626;2023-08-17T06:29:41;27.20;99.90
68385;DHT22;55336;43.062;25.626;2023-08-17T06:32:07;27.80;99.90
68385;DHT22;55336;43.062;25.626;2023-08-17T06:34:33;27.80;99.90
68385;DHT22;55336;43.062;25.626;2023-08-17T06:37:00;28.10;99.90
68385;DHT22;55336;43.062;25.626;2023-08-17T06:39:26;27.50;99.90
68385;DHT22;55336;43.062;25.626;2023-08-17T06:41:53;28.10;99.90
68385;DHT22;55336;43.062;25.626;2023-08-17T06:44:18;28.20;99.90
68385;DHT22;55336;43.062;25.626;2023-08-17T06:46:44;28.70;99.90
68385;DHT22;55336;43.062;25.626;2023-08-17T06:49:10;28.90;99.90
68385;DHT22;55336;43.062;25.626;2023-08-17T06:51:36;28.90;99.90
68385;DHT22;55336;43.062;25.626;2023-08-17T06:54:02;29.10;99.90
68385;DHT22;55336;43.062;25.626;2023-08-17T06:56:28;29.40;99.90
68385;DHT22;55336;43.062;25.626;2023-08-17T06:58:53;29.70;99.90
68385;DHT22;55336;43.062;25.626;2023-08-17T07:01:19;30.00;99.90
68385;DHT22;55336;43.062;25.626;2023-08-17T07:03:45;30.10;98.30
68385;DHT22;55336;43.062;25.626;2023-08-17T07:06:11;30.40;94.60
68385;DHT22;55336;43.062;25.626;2023-08-17T07:08:36;30.90;89.50
68385;DHT22;55336;43.062;25.626;2023-08-17T07:11:02;31.10;87.40
68385;DHT22;55336;43.062;25.626;2023-08-17T07:13:29;31.10;86.60
68385;DHT22;55336;43.062;25.626;2023-08-17T07:15:55;31.70;81.30
68385;DHT22;55336;43.062;25.626;2023-08-17T07:18:20;31.80;82.30
68385;DHT22;55336;43.062;25.626;2023-08-17T07:20:46;31.50;79.40
68385;DHT22;55336;43.062;25.626;2023-08-17T07:23:12;31.80;77.70
68385;DHT22;55336;43.062;25.626;2023-08-17T07:25:38;32.20;76.30
68385;DHT22;55336;43.062;25.626;2023-08-17T07:28:04;32.60;75.10
68385;DHT22;55336;43.062;25.626;2023-08-17T07:30:29;32.30;71.50
68385;DHT22;55336;43.062;25.626;2023-08-17T07:32:55;32.40;72.10
68385;DHT22;55336;43.062;25.626;2023-08-17T07:35:21;32.60;69.10
68385;DHT22;55336;43.062;25.626;2023-08-17T07:37:46;32.80;67.80
68385;DHT22;55336;43.062;25.626;2023-08-17T07:40:12;32.90;65.90
68385;DHT22;55336;43.062;25.626;2023-08-17T07:42:38;33.00;66.60
68385;DHT22;55336;43.062;25.626;2023-08-17T07:45:04;33.00;63.90
68385;DHT22;55336;43.062;25.626;2023-08-17T07:47:31;33.30;62.90
68385;DHT22;55336;43.062;25.626;2023-08-17T07:49:57;33.60;61.20
68385;DHT22;55336;43.062;25.626;2023-08-17T07:52:23;33.70;60.60
68385;DHT22;55336;43.062;25.626;2023-08-17T07:54:48;33.80;60.20
68385;DHT22;55336;43.062;25.626;2023-08-17T07:57:14;34.10;58.70
68385;DHT22;55336;43.062;25.626;2023-08-17T07:59:40;34.10;58.60
68385;DHT22;55336;43.062;25.626;2023-08-17T08:02:06;34.40;57.50
68385;DHT22;55336;43.062;25.626;2023-08-17T08:04:32;34.40;56.90
68385;DHT22;55336;43.062;25.626;2023-08-17T08:06:57;34.80;55.90
68385;DHT22;55336;43.062;25.626;2023-08-17T08:09:23;34.90;53.50
68385;DHT22;55336;43.062;25.626;2023-08-17T08:11:49;34.70;54.60
68385;DHT22;55336;43.062;25.626;2023-08-17T08:14:14;34.90;53.40
68385;DHT22;55336;43.062;25.626;2023-08-17T08:16:40;35.10;52.60
68385;DHT22;55336;43.062;25.626;2023-08-17T08:19:06;34.80;52.10
68385;DHT22;55336;43.062;25.626;2023-08-17T08:21:32;34.80;52.40
68385;DHT22;55336;43.062;25.626;2023-08-17T08:23:57;34.90;54.50
68385;DHT22;55336;43.062;25.626;2023-08-17T08:26:23;34.50;52.50
68385;DHT22;55336;43.062;25.626;2023-08-17T08:28:49;34.70;53.60
68385;DHT22;55336;43.062;25.626;2023-08-17T08:31:14;34.80;53.10
68385;DHT22;55336;43.062;25.626;2023-08-17T08:33:40;34.40;53.80
68385;DHT22;55336;43.062;25.626;2023-08-17T08:36:06;34.10;56.60
68385;DHT22;55336;43.062;25.626;2023-08-17T08:38:32;34.50;54.90
68385;DHT22;55336;43.062;25.626;2023-08-17T08:40:58;35.20;54.20
68385;DHT22;55336;43.062;25.626;2023-08-17T08:43:24;35.10;51.90
68385;DHT22;55336;43.062;25.626;2023-08-17T08:45:51;33.70;57.20
68385;DHT22;55336;43.062;25.626;2023-08-17T08:48:18;34.60;55.60
68385;DHT22;55336;43.062;25.626;2023-08-17T08:50:43;35.00;51.40
68385;DHT22;55336;43.062;25.626;2023-08-17T08:53:14;34.30;52.20
68385;DHT22;55336;43.062;25.626;2023-08-17T08:55:51;34.30;52.20
68385;DHT22;55336;43.062;25.626;2023-08-17T08:58:18;35.00;53.30
68385;DHT22;55336;43.062;25.626;2023-08-17T09:00:47;35.20;51.20
68385;DHT22;55336;43.062;25.626;2023-08-17T09:03:14;35.50;49.80
68385;DHT22;55336;43.062;25.626;2023-08-17T09:05:40;35.40;50.00
68385;DHT22;55336;43.062;25.626;2023-08-17T09:08:08;35.60;47.80
68385;DHT22;55336;43.062;25.626;2023-08-17T09:10:33;35.70;48.00
68385;DHT22;55336;43.062;25.626;2023-08-17T09:12:59;36.00;47.80
68385;DHT22;55336;43.062;25.626;2023-08-17T09:15:25;36.20;47.40
68385;DHT22;55336;43.062;25.626;2023-08-17T09:17:50;36.40;46.80
68385;DHT22;55336;43.062;25.626;2023-08-17T09:23:03;36.80;46.00
68385;DHT22;55336;43.062;25.626;2023-08-17T09:25:30;36.80;43.50
68385;DHT22;55336;43.062;25.626;2023-08-17T09:27:57;37.10;44.40
68385;DHT22;55336;43.062;25.626;2023-08-17T09:30:22;36.90;43.70
68385;DHT22;55336;43.062;25.626;2023-08-17T09:32:48;36.80;44.20
68385;DHT22;55336;43.062;25.626;2023-08-17T09:35:14;36.70;44.80
68385;DHT22;55336;43.062;25.626;2023-08-17T09:37:40;36.80;44.90
68385;DHT22;55336;43.062;25.626;2023-08-17T09:40:06;37.10;43.80
68385;DHT22;55336;43.062;25.626;2023-08-17T09:42:36;37.10;44.70
68385;DHT22;55336;43.062;25.626;2023-08-17T09:45:04;36.60;45.00
68385;DHT22;55336;43.062;25.626;2023-08-17T09:47:29;36.40;46.00
68385;DHT22;55336;43.062;25.626;2023-08-17T09:49:55;36.60;44.90
68385;DHT22;55336;43.062;25.626;2023-08-17T09:52:21;36.90;46.30
68385;DHT22;55336;43.062;25.626;2023-08-17T09:54:47;36.90;45.30
68385;DHT22;55336;43.062;25.626;2023-08-17T09:57:13;37.20;44.00
68385;DHT22;55336;43.062;25.626;2023-08-17T09:59:39;37.30;44.70
68385;DHT22;55336;43.062;25.626;2023-08-17T10:02:06;37.10;45.10
68385;DHT22;55336;43.062;25.626;2023-08-17T10:04:37;37.40;44.10
68385;DHT22;55336;43.062;25.626;2023-08-17T10:07:03;37.40;44.70
68385;DHT22;55336;43.062;25.626;2023-08-17T10:09:36;37.80;41.30
68385;DHT22;55336;43.062;25.626;2023-08-17T10:12:06;38.30;40.50
68385;DHT22;55336;43.062;25.626;2023-08-17T10:14:34;38.30;43.00
68385;DHT22;55336;43.062;25.626;2023-08-17T10:17:03;38.20;40.40
68385;DHT22;55336;43.062;25.626;2023-08-17T10:22:17;38.40;39.90
68385;DHT22;55336;43.062;25.626;2023-08-17T10:24:44;38.60;41.00
68385;DHT22;55336;43.062;25.626;2023-08-17T10:27:10;38.40;39.70
68385;DHT22;55336;43.062;25.626;2023-08-17T10:29:36;38.10;39.60
68385;DHT22;55336;43.062;25.626;2023-08-17T10:32:03;38.00;40.60
68385;DHT22;55336;43.062;25.626;2023-08-17T10:34:31;38.10;40.00
68385;DHT22;55336;43.062;25.626;2023-08-17T10:36:56;38.50;39.80
68385;DHT22;55336;43.062;25.626;2023-08-17T10:39:27;38.70;37.90
68385;DHT22;55336;43.062;25.626;2023-08-17T10:41:53;38.80;39.30
68385;DHT22;55336;43.062;25.626;2023-08-17T10:47:19;38.60;40.60
68385;DHT22;55336;43.062;25.626;2023-08-17T10:49:47;39.10;37.90
68385;DHT22;55336;43.062;25.626;2023-08-17T10:52:13;38.70;38.30
68385;DHT22;55336;43.062;25.626;2023-08-17T10:54:39;38.70;37.50
68385;DHT22;55336;43.062;25.626;2023-08-17T11:02:45;39.20;36.90
68385;DHT22;55336;43.062;25.626;2023-08-17T11:05:21;39.50;37.70
68385;DHT22;55336;43.062;25.626;2023-08-17T11:07:59;39.30;36.20
68385;DHT22;55336;43.062;25.626;2023-08-17T11:12:52;39.00;36.70
68385;DHT22;55336;43.062;25.626;2023-08-17T11:15:20;38.70;39.40
68385;DHT22;55336;43.062;25.626;2023-08-17T11:17:46;39.20;37.50
68385;DHT22;55336;43.062;25.626;2023-08-17T11:20:12;39.20;36.20
68385;DHT22;55336;43.062;25.626;2023-08-17T11:22:37;39.40;35.10
68385;DHT22;55336;43.062;25.626;2023-08-17T11:25:04;39.50;35.50
68385;DHT22;55336;43.062;25.626;2023-08-17T11:27:31;39.70;34.30
68385;DHT22;55336;43.062;25.626;2023-08-17T11:29:56;39.50;34.90
68385;DHT22;55336;43.062;25.626;2023-08-17T11:32:22;39.30;35.30
68385;DHT22;55336;43.062;25.626;2023-08-17T11:34:48;39.50;35.00
68385;DHT22;55336;43.062;25.626;2023-08-17T11:37:15;39.90;35.20
68385;DHT22;55336;43.062;25.626;2023-08-17T11:39:41;40.10;33.90
68385;DHT22;55336;43.062;25.626;2023-08-17T11:42:07;40.40;33.00
68385;DHT22;55336;43.062;25.626;2023-08-17T11:44:33;40.50;33.10
68385;DHT22;55336;43.062;25.626;2023-08-17T11:46:59;40.20;33.40
68385;DHT22;55336;43.062;25.626;2023-08-17T11:49:25;40.20;34.00
68385;DHT22;55336;43.062;25.626;2023-08-17T11:51:53;39.70;34.20
68385;DHT22;55336;43.062;25.626;2023-08-17T11:54:19;40.20;34.80
68385;DHT22;55336;43.062;25.626;2023-08-17T11:56:47;40.40;35.40
68385;DHT22;55336;43.062;25.626;2023-08-17T11:59:13;40.80;33.10
68385;DHT22;55336;43.062;25.626;2023-08-17T12:01:45;40.70;31.20
68385;DHT22;55336;43.062;25.626;2023-08-17T12:04:11;40.50;32.40
68385;DHT22;55336;43.062;25.626;2023-08-17T12:06:37;40.30;34.50
68385;DHT22;55336;43.062;25.626;2023-08-17T12:09:07;39.90;32.70
68385;DHT22;55336;43.062;25.626;2023-08-17T12:11:33;39.70;32.70
68385;DHT22;55336;43.062;25.626;2023-08-17T12:13:59;39.40;32.90
68385;DHT22;55336;43.062;25.626;2023-08-17T12:16:24;39.50;33.80
68385;DHT22;55336;43.062;25.626;2023-08-17T12:18:50;39.80;33.90
68385;DHT22;55336;43.062;25.626;2023-08-17T12:21:19;39.10;34.60
68385;DHT22;55336;43.062;25.626;2023-08-17T12:23:45;39.00;35.70
68385;DHT22;55336;43.062;25.626;2023-08-17T12:26:17;39.50;35.10
68385;DHT22;55336;43.062;25.626;2023-08-17T12:28:43;39.40;35.10
68385;DHT22;55336;43.062;25.626;2023-08-17T12:31:09;39.50;34.70
68385;DHT22;55336;43.062;25.626;2023-08-17T12:33:35;39.80;33.10
68385;DHT22;55336;43.062;25.626;2023-08-17T12:36:01;40.20;33.30
68385;DHT22;55336;43.062;25.626;2023-08-17T12:38:26;40.40;33.60
68385;DHT22;55336;43.062;25.626;2023-08-17T12:40:52;40.70;33.30
68385;DHT22;55336;43.062;25.626;2023-08-17T12:43:18;40.80;33.00
68385;DHT22;55336;43.062;25.626;2023-08-17T12:45:44;41.10;32.00
68385;DHT22;55336;43.062;25.626;2023-08-17T12:48:09;41.30;32.20
68385;DHT22;55336;43.062;25.626;2023-08-17T12:50:35;40.80;31.70
68385;DHT22;55336;43.062;25.626;2023-08-17T12:53:01;40.40;31.10
68385;DHT22;55336;43.062;25.626;2023-08-17T12:55:26;39.50;33.10
68385;DHT22;55336;43.062;25.626;2023-08-17T12:57:52;40.00;34.60
68385;DHT22;55336;43.062;25.626;2023-08-17T13:00:18;39.50;34.40
68385;DHT22;55336;43.062;25.626;2023-08-17T13:02:44;39.40;35.00
68385;DHT22;55336;43.062;25.626;2023-08-17T13:05:12;39.10;35.40
68385;DHT22;55336;43.062;25.626;2023-08-17T13:07:37;38.70;35.20
68385;DHT22;55336;43.062;25.626;2023-08-17T13:10:03;38.20;36.00
68385;DHT22;55336;43.062;25.626;2023-08-17T13:12:29;38.00;36.80
68385;DHT22;55336;43.062;25.626;2023-08-17T13:14:54;38.40;36.20
68385;DHT22;55336;43.062;25.626;2023-08-17T13:17:20;38.90;33.80
68385;DHT22;55336;43.062;25.626;2023-08-17T13:19:46;39.00;35.80
68385;DHT22;55336;43.062;25.626;2023-08-17T13:22:12;38.60;35.80
68385;DHT22;55336;43.062;25.626;2023-08-17T13:24:37;38.00;37.80
68385;DHT22;55336;43.062;25.626;2023-08-17T13:27:03;38.00;36.50
68385;DHT22;55336;43.062;25.626;2023-08-17T13:29:29;38.00;36.60
68385;DHT22;55336;43.062;25.626;2023-08-17T13:31:54;38.70;36.30
68385;DHT22;55336;43.062;25.626;2023-08-17T13:34:20;39.20;34.10
68385;DHT22;55336;43.062;25.626;2023-08-17T13:36:46;39.00;35.80
68385;DHT22;55336;43.062;25.626;2023-08-17T13:39:12;38.40;36.10
68385;DHT22;55336;43.062;25.626;2023-08-17T13:41:38;38.50;36.40
68385;DHT22;55336;43.062;25.626;2023-08-17T13:44:04;38.70;35.40
68385;DHT22;55336;43.062;25.626;2023-08-17T13:46:29;39.10;34.50
68385;DHT22;55336;43.062;25.626;2023-08-17T13:48:55;39.40;33.20
68385;DHT22;55336;43.062;25.626;2023-08-17T13:51:21;39.50;34.30
68385;DHT22;55336;43.062;25.626;2023-08-17T13:53:46;39.90;33.30
68385;DHT22;55336;43.062;25.626;2023-08-17T13:56:12;40.10;33.90
68385;DHT22;55336;43.062;25.626;2023-08-17T13:58:38;40.40;33.10
68385;DHT22;55336;43.062;25.626;2023-08-17T14:01:08;40.30;32.00
68385;DHT22;55336;43.062;25.626;2023-08-17T14:03:47;39.50;33.60
68385;DHT22;55336;43.062;25.626;2023-08-17T14:06:14;40.00;34.50
68385;DHT22;55336;43.062;25.626;2023-08-17T14:08:41;39.60;34.50
68385;DHT22;55336;43.062;25.626;2023-08-17T14:11:09;39.40;35.30
68385;DHT22;55336;43.062;25.626;2023-08-17T14:13:35;39.10;35.30
68385;DHT22;55336;43.062;25.626;2023-08-17T14:16:06;38.80;36.20
68385;DHT22;55336;43.062;25.626;2023-08-17T14:18:32;37.90;36.30
68385;DHT22;55336;43.062;25.626;2023-08-17T14:20:58;37.60;39.10
68385;DHT22;55336;43.062;25.626;2023-08-17T14:23:23;37.40;39.10
68385;DHT22;55336;43.062;25.626;2023-08-17T14:26:07;37.60;38.10
68385;DHT22;55336;43.062;25.626;2023-08-17T14:28:43;37.40;40.10
68385;DHT22;55336;43.062;25.626;2023-08-17T14:31:09;37.50;39.00
68385;DHT22;55336;43.062;25.626;2023-08-17T14:33:44;37.00;39.70
68385;DHT22;55336;43.062;25.626;2023-08-17T14:36:18;37.20;41.50
68385;DHT22;55336;43.062;25.626;2023-08-17T14:38:49;37.50;39.90
68385;DHT22;55336;43.062;25.626;2023-08-17T14:41:18;37.50;38.70
68385;DHT22;55336;43.062;25.626;2023-08-17T14:43:46;37.70;39.10
68385;DHT22;55336;43.062;25.626;2023-08-17T14:46:12;37.80;38.60
68385;DHT22;55336;43.062;25.626;2023-08-17T14:48:38;37.80;38.10
68385;DHT22;55336;43.062;25.626;2023-08-17T14:51:06;37.60;38.70
68385;DHT22;55336;43.062;25.626;2023-08-17T14:53:35;37.40;37.60
68385;DHT22;55336;43.062;25.626;2023-08-17T14:56:04;36.90;41.10
68385;DHT22;55336;43.062;25.626;2023-08-17T14:58:30;37.10;44.60
68385;DHT22;55336;43.062;25.626;2023-08-17T15:00:56;37.40;40.00
68385;DHT22;55336;43.062;25.626;2023-08-17T15:03:22;37.70;39.30
68385;DHT22;55336;43.062;25.626;2023-08-17T15:05:48;37.60;36.70
68385;DHT22;55336;43.062;25.626;2023-08-17T15:08:13;37.90;37.30
68385;DHT22;55336;43.062;25.626;2023-08-17T15:10:40;38.00;37.10
68385;DHT22;55336;43.062;25.626;2023-08-17T15:13:06;37.90;40.40
68385;DHT22;55336;43.062;25.626;2023-08-17T15:15:32;37.80;40.60
68385;DHT22;55336;43.062;25.626;2023-08-17T15:17:58;37.30;39.50
68385;DHT22;55336;43.062;25.626;2023-08-17T15:20:24;37.30;44.70
68385;DHT22;55336;43.062;25.626;2023-08-17T15:22:52;37.40;42.10
68385;DHT22;55336;43.062;25.626;2023-08-17T15:25:18;37.30;41.20
68385;DHT22;55336;43.062;25.626;2023-08-17T15:27:46;37.00;40.30
68385;DHT22;55336;43.062;25.626;2023-08-17T15:30:11;37.00;39.90
68385;DHT22;55336;43.062;25.626;2023-08-17T15:32:39;36.90;39.20
68385;DHT22;55336;43.062;25.626;2023-08-17T15:35:05;36.70;42.80
68385;DHT22;55336;43.062;25.626;2023-08-17T15:37:31;36.50;43.60
68385;DHT22;55336;43.062;25.626;2023-08-17T15:39:57;36.50;42.10
68385;DHT22;55336;43.062;25.626;2023-08-17T15:42:22;36.40;42.80